sensor_id;sensor_type;location;lat;lon;timestamp;temperature;humidity
30300;DHT22;17110;52.602;12.998;2024-02-26T00:03:59;0.20;99.90
30300;DHT22;17110;52.602;12.998;2024-02-26T00:09:00;0.20;99.90
30300;DHT22;17110;52.602;12.998;2024-02-26T00:14:02;0.10;99.90
30300;DHT22;17110;52.602;12.998;2024-02-26T00:19:03;0.00;99.90
30300;DHT22;17110;52.602;12.998;2024-02-26T00:24:04;0.00;99.90
30300;DHT22;17110;52.602;12.998;2024-02-26T00:29:06;0.00;99.90
30300;DHT22;17110;52.602;12.998;2024-02-26T00:34:07;0.00;99.90
30300;DHT22;17110;52.602;12.998;2024-02-26T00:39:07;-0.10;99.90
30300;DHT22;17110;52.602;12.998;2024-02-26T00:44:09;-0.10;99.90
30300;DHT22;17110;52.602;12.998;2024-02-26T00:49:10;-0.10;99.90
30300;DHT22;17110;52.602;12.998;2024-02-26T00:54:11;-0.10;99.90
30300;DHT22;17110;52.602;12.998;2024-02-26T00:59:13;-0.10;99.90
30300;DHT22;17110;52.602;12.998;2024-02-26T01:04:14;-0.20;99.90
30300;DHT22;17110;52.602;12.998;2024-02-26T01:09:14;-0.20;99.90
30300;DHT22;17110;52.602;12.998;2024-02-26T01:14:16;-0.30;99.90
30300;DHT22;17110;52.602;12.998;2024-02-26T01:19:17;-0.30;99.90
30300;DHT22;17110;52.602;12.998;2024-02-26T01:24:18;-0.30;99.90
30300;DHT22;17110;52.602;12.998;2024-02-26T01:29:20;-0.30;99.90
30300;DHT22;17110;52.602;12.998;2024-02-26T01:34:21;-0.40;99.90
30300;DHT22;17110;52.602;12.998;2024-02-26T01:39:21;-0.40;99.90
30300;DHT22;17110;52.602;12.998;2024-02-26T01:44:23;-0.40;99.90
30300;DHT22;17110;52.602;12.998;2024-02-26T01:49:25;-0.50;99.90
30300;DHT22;17110;52.602;12.998;2024-02-26T01:54:26;-0.50;99.90
30300;DHT22;17110;52.602;12.998;2024-02-26T01:59:28;-0.60;99.90
30300;DHT22;17110;52.602;12.998;2024-02-26T02:04:29;-0.70;99.90
30300;DHT22;17110;52.602;12.998;2024-02-26T02:09:30;-0.70;99.90
30300;DHT22;17110;52.602;12.998;2024-02-26T02:14:32;-0.70;99.90
30300;DHT22;17110;52.602;12.998;2024-02-26T02:19:33;-0.70;99.90
30300;DHT22;17110;52.602;12.998;2024-02-26T02:24:35;-0.70;99.90
30300;DHT22;17110;52.602;12.998;2024-02-26T02:29:36;-0.70;99.90
30300;DHT22;17110;52.602;12.998;2024-02-26T02:34:37;-0.70;99.90
30300;DHT22;17110;52.602;12.998;2024-02-26T02:39:39;-0.80;99.90
30300;DHT22;17110;52.602;12.998;2024-02-26T02:44:40;-0.80;99.90
30300;DHT22;17110;52.602;12.998;2024-02-26T02:49:41;-0.70;99.90
30300;DHT22;17110;52.602;12.998;2024-02-26T02:54:43;-0.70;99.90
30300;DHT22;17110;52.602;12.998;2024-02-26T02:59:44;-0.80;99.90
30300;DHT22;17110;52.602;12.998;2024-02-26T03:04:44;-0.80;99.90
30300;DHT22;17110;52.602;12.998;2024-02-26T03:09:46;-0.80;99.90
30300;DHT22;17110;52.602;12.998;2024-02-26T03:14:47;-0.80;99.90
30300;DHT22;17110;52.602;12.998;2024-02-26T03:19:48;-0.90;99.90
30300;DHT22;17110;52.602;12.998;2024-02-26T03:24:50;-0.90;99.90
30300;DHT22;17110;52.602;12.998;2024-02-26T03:29:51;-0.90;99.90
30300;DHT22;17110;52.602;12.998;2024-02-26T03:34:51;-0.90;99.90
30300;DHT22;17110;52.602;12.998;2024-02-26T03:39:53;-0.90;99.90
30300;DHT22;17110;52.602;12.998;2024-02-26T03:44:54;-1.00;99.90
30300;DHT22;17110;52.602;12.998;2024-02-26T03:49:55;-1.00;99.90
30300;DHT22;17110;52.602;12.998;2024-02-26T03:54:57;-1.00;99.90
30300;DHT22;17110;52.602;12.998;2024-02-26T03:59:58;-1.00;99.90
30300;DHT22;17110;52.602;12.998;2024-02-26T04:04:59;-1.10;99.90
30300;DHT22;17110;52.602;12.998;2024-02-26T04:10:01;-1.10;99.90
30300;DHT22;17110;52.602;12.998;2024-02-26T04:15:02;-1.10;99.90
30300;DHT22;17110;52.602;12.998;2024-02-26T04:20:03;-1.10;99.90
30300;DHT22;17110;52.602;12.998;2024-02-26T04:25:06;-1.10;99.90
30300;DHT22;17110;52.602;12.998;2024-02-26T04:30:08;-1.10;99.90
30300;DHT22;17110;52.602;12.998;2024-02-26T04:35:09;-1.10;99.90
30300;DHT22;17110;52.602;12.998;2024-02-26T04:40:12;-1.10;99.90
30300;DHT22;17110;52.602;12.998;2024-02-26T04:45:13;-1.10;99.90
30300;DHT22;17110;52.602;12.998;2024-02-26T04:50:14;-1.10;99.90
30300;DHT22;17110;52.602;12.998;2024-02-26T04:55:16;-1.10;99.90
30300;DHT22;17110;52.602;12.998;2024-02-26T05:00:17;-1.10;99.90
30300;DHT22;17110;52.602;12.998;2024-02-26T05:05:18;-1.20;99.90
30300;DHT22;17110;52.602;12.998;2024-02-26T05:10:20;-1.20;99.90
30300;DHT22;17110;52.602;12.998;2024-02-26T05:15:21;-1.20;99.90
30300;DHT22;17110;52.602;12.998;2024-02-26T05:20:21;-1.20;99.90
30300;DHT22;17110;52.602;12.998;2024-02-26T05:25:24;-1.20;99.90
30300;DHT22;17110;52.602;12.998;2024-02-26T05:30:24;-1.20;99.90
30300;DHT22;17110;52.602;12.998;2024-02-26T05:35:25;-1.20;99.90
30300;DHT22;17110;52.602;12.998;2024-02-26T05:40:27;-1.10;99.90
30300;DHT22;17110;52.602;12.998;2024-02-26T05:45:28;-1.10;99.90
30300;DHT22;17110;52.602;12.998;2024-02-26T05:50:29;-1.10;99.90
30300;DHT22;17110;52.602;12.998;2024-02-26T05:55:31;-1.10;99.90
30300;DHT22;17110;52.602;12.998;2024-02-26T06:00:31;-1.00;99.90
30300;DHT22;17110;52.602;12.998;2024-02-26T06:05:32;-0.90;99.90
30300;DHT22;17110;52.602;12.998;2024-02-26T06:10:34;-0.70;99.90
30300;DHT22;17110;52.602;12.998;2024-02-26T06:15:35;-0.60;99.90
30300;DHT22;17110;52.602;12.998;2024-02-26T06:20:36;-0.60;99.90
30300;DHT22;17110;52.602;12.998;2024-02-26T06:25:38;-0.50;99.90
30300;DHT22;17110;52.602;12.998;2024-02-26T06:30:38;-0.30;99.90
30300;DHT22;17110;52.602;12.998;2024-02-26T06:35:39;0.00;99.90
30300;DHT22;17110;52.602;12.998;2024-02-26T06:40:41;0.30;99.90
30300;DHT22;17110;52.602;12.998;2024-02-26T06:45:42;0.70;99.90
30300;DHT22;17110;52.602;12.998;2024-02-26T06:50:43;0.90;99.90
30300;DHT22;17110;52.602;12.998;2024-02-26T06:55:45;1.00;99.90
30300;DHT22;17110;52.602;12.998;2024-02-26T07:00:45;1.30;99.90
30300;DHT22;17110;52.602;12.998;2024-02-26T07:05:46;1.40;99.90
30300;DHT22;17110;52.602;12.998;2024-02-26T07:10:48;1.60;99.90
30300;DHT22;17110;52.602;12.998;2024-02-26T07:15:49;1.70;99.90
30300;DHT22;17110;52.602;12.998;2024-02-26T07:20:50;2.10;99.90
30300;DHT22;17110;52.602;12.998;2024-02-26T07:25:52;2.40;99.90
30300;DHT22;17110;52.602;12.998;2024-02-26T07:30:52;2.60;99.90
30300;DHT22;17110;52.602;12.998;2024-02-26T07:35:53;2.80;99.90
30300;DHT22;17110;52.602;12.998;2024-02-26T07:40:55;2.90;99.90
30300;DHT22;17110;52.602;12.998;2024-02-26T07:45:57;3.00;99.90
30300;DHT22;17110;52.602;12.998;2024-02-26T07:50:57;3.20;99.90
30300;DHT22;17110;52.602;12.998;2024-02-26T07:56:00;3.20;99.90
30300;DHT22;17110;52.602;12.998;2024-02-26T08:01:00;3.20;99.90
30300;DHT22;17110;52.602;12.998;2024-02-26T08:06:01;3.20;99.90
30300;DHT22;17110;52.602;12.998;2024-02-26T08:11:03;3.40;99.90
30300;DHT22;17110;52.602;12.998;2024-02-26T08:16:05;3.50;99.90
30300;DHT22;17110;52.602;12.998;2024-02-26T08:21:06;3.70;99.90
30300;DHT22;17110;52.602;12.998;2024-02-26T08:26:08;3.80;99.90
30300;DHT22;17110;52.602;12.998;2024-02-26T08:31:10;4.00;99.90
30300;DHT22;17110;52.602;12.998;2024-02-26T08:36:11;4.10;99.90
30300;DHT22;17110;52.602;12.998;2024-02-26T08:41:13;4.30;99.90
30300;DHT22;17110;52.602;12.998;2024-02-26T08:46:14;4.50;99.90
30300;DHT22;17110;52.602;12.998;2024-02-26T08:51:15;4.60;99.90
30300;DHT22;17110;52.602;12.998;2024-02-26T08:56:17;4.80;99.90
30300;DHT22;17110;52.602;12.998;2024-02-26T09:01:18;4.90;99.90
30300;DHT22;17110;52.602;12.998;2024-02-26T09:06:18;5.00;99.90
30300;DHT22;17110;52.602;12.998;2024-02-26T09:11:20;5.30;99.90
30300;DHT22;17110;52.602;12.998;2024-02-26T09:16:21;5.40;99.90
30300;DHT22;17110;52.602;12.998;2024-02-26T09:21:22;5.70;99.90
30300;DHT22;17110;52.602;12.998;2024-02-26T09:26:24;6.00;99.90
30300;DHT22;17110;52.602;12.998;2024-02-26T09:31:25;6.40;99.90
30300;DHT22;17110;52.602;12.998;2024-02-26T09:36:25;6.70;99.90
30300;DHT22;17110;52.602;12.998;2024-02-26T09:41:29;7.10;99.90
30300;DHT22;17110;52.602;12.998;2024-02-26T09:46:30;7.40;99.90
30300;DHT22;17110;52.602;12.998;2024-02-26T09:51:31;7.50;99.90
30300;DHT22;17110;52.602;12.998;2024-02-26T09:56:34;7.70;99.90
30300;DHT22;17110;52.602;12.998;2024-02-26T10:01:35;7.70;99.90
30300;DHT22;17110;52.602;12.998;2024-02-26T10:06:37;7.50;99.90
30300;DHT22;17110;52.602;12.998;2024-02-26T10:11:40;7.70;99.90
30300;DHT22;17110;52.602;12.998;2024-02-26T10:16:41;8.00;99.90
30300;DHT22;17110;52.602;12.998;2024-02-26T10:21:42;8.20;99.90
30300;DHT22;17110;52.602;12.998;2024-02-26T10:26:47;8.50;99.90
30300;DHT22;17110;52.602;12.998;2024-02-26T10:31:48;8.80;99.90
30300;DHT22;17110;52.602;12.998;2024-02-26T10:36:49;9.00;99.90
30300;DHT22;17110;52.602;12.998;2024-02-26T10:41:51;9.40;99.90
30300;DHT22;17110;52.602;12.998;2024-02-26T10:46:52;9.60;99.90
30300;DHT22;17110;52.602;12.998;2024-02-26T10:51:55;9.70;99.90
30300;DHT22;17110;52.602;12.998;2024-02-26T10:56:57;9.50;99.90
30300;DHT22;17110;52.602;12.998;2024-02-26T11:01:59;9.80;99.90
30300;DHT22;17110;52.602;12.998;2024-02-26T11:07:01;9.60;99.90
30300;DHT22;17110;52.602;12.998;2024-02-26T11:12:04;9.80;99.90
30300;DHT22;17110;52.602;12.998;2024-02-26T11:17:05;9.80;99.90
30300;DHT22;17110;52.602;12.998;2024-02-26T11:22:07;9.90;99.90
30300;DHT22;17110;52.602;12.998;2024-02-26T11:27:10;9.90;99.90
30300;DHT22;17110;52.602;12.998;2024-02-26T11:32:12;10.00;99.90
30300;DHT22;17110;52.602;12.998;2024-02-26T11:37:16;10.00;99.90
30300;DHT22;17110;52.602;12.998;2024-02-26T11:42:23;10.40;99.90
30300;DHT22;17110;52.602;12.998;2024-02-26T11:47:24;10.50;99.90
30300;DHT22;17110;52.602;12.998;2024-02-26T11:52:25;10.80;99.90
30300;DHT22;17110;52.602;12.998;2024-02-26T11:57:28;11.10;99.90
30300;DHT22;17110;52.602;12.998;2024-02-26T12:02:45;10.80;99.90
30300;DHT22;17110;52.602;12.998;2024-02-26T12:07:48;10.70;99.90
30300;DHT22;17110;52.602;12.998;2024-02-26T12:12:53;10.90;99.90
30300;DHT22;17110;52.602;12.998;2024-02-26T12:17:54;11.10;99.90
30300;DHT22;17110;52.602;12.998;2024-02-26T12:22:56;11.10;99.90
30300;DHT22;17110;52.602;12.998;2024-02-26T12:27:59;11.30;99.90
30300;DHT22;17110;52.602;12.998;2024-02-26T12:33:00;11.30;99.90
30300;DHT22;17110;52.602;12.998;2024-02-26T12:38:01;11.50;99.90
30300;DHT22;17110;52.602;12.998;2024-02-26T12:43:04;11.50;99.90
30300;DHT22;17110;52.602;12.998;2024-02-26T12:48:05;11.20;99.90
30300;DHT22;17110;52.602;12.998;2024-02-26T12:53:06;11.50;99.90
30300;DHT22;17110;52.602;12.998;2024-02-26T13:03:39;11.60;99.90
30300;DHT22;17110;52.602;12.998;2024-02-26T13:08:40;11.70;99.90
30300;DHT22;17110;52.602;12.998;2024-02-26T13:13:41;11.60;99.90
30300;DHT22;17110;52.602;12.998;2024-02-26T13:18:43;11.50;99.90
30300;DHT22;17110;52.602;12.998;2024-02-26T13:23:48;11.60;99.90
30300;DHT22;17110;52.602;12.998;2024-02-26T13:28:59;11.80;99.90
30300;DHT22;17110;52.602;12.998;2024-02-26T13:34:01;11.80;99.90
30300;DHT22;17110;52.602;12.998;2024-02-26T13:39:02;11.80;99.90
30300;DHT22;17110;52.602;12.998;2024-02-26T13:44:03;11.80;99.90
30300;DHT22;17110;52.602;12.998;2024-02-26T13:49:08;11.80;99.90
30300;DHT22;17110;52.602;12.998;2024-02-26T13:54:09;11.80;99.90
30300;DHT22;17110;52.602;12.998;2024-02-26T13:59:10;11.70;99.90
30300;DHT22;17110;52.602;12.998;2024-02-26T14:04:12;11.70;99.90
30300;DHT22;17110;52.602;12.998;2024-02-26T14:09:13;11.60;99.90
30300;DHT22;17110;52.602;12.998;2024-02-26T14:14:14;11.70;99.90
30300;DHT22;17110;52.602;12.998;2024-02-26T14:19:16;11.70;99.90
30300;DHT22;17110;52.602;12.998;2024-02-26T14:24:16;11.70;99.90
30300;DHT22;17110;52.602;12.998;2024-02-26T14:29:17;11.60;99.90
30300;DHT22;17110;52.602;12.998;2024-02-26T14:34:19;11.70;99.90
30300;DHT22;17110;52.602;12.998;2024-02-26T14:39:20;11.50;99.90
30300;DHT22;17110;52.602;12.998;2024-02-26T14:44:21;11.50;99.90
30300;DHT22;17110;52.602;12.998;2024-02-26T14:49:23;11.50;99.90
30300;DHT22;17110;52.602;12.998;2024-02-26T14:54:23;11.40;99.90
30300;DHT22;17110;52.602;12.998;2024-02-26T14:59:24;11.30;99.90
30300;DHT22;17110;52.602;12.998;2024-02-26T15:04:26;11.40;99.90
30300;DHT22;17110;52.602;12.998;2024-02-26T15:09:27;11.30;99.90
30300;DHT22;17110;52.602;12.998;2024-02-26T15:14:28;11.40;99.90
30300;DHT22;17110;52.602;12.998;2024-02-26T15:19:30;11.30;99.90
30300;DHT22;17110;52.602;12.998;2024-02-26T15:24:30;11.10;99.90
30300;DHT22;17110;52.602;12.998;2024-02-26T15:29:31;10.90;99.90
30300;DHT22;17110;52.602;12.998;2024-02-26T15:34:33;10.80;99.90
30300;DHT22;17110;52.602;12.998;2024-02-26T15:39:34;10.70;99.90
30300;DHT22;17110;52.602;12.998;2024-02-26T15:44:37;10.60;99.90
30300;DHT22;17110;52.602;12.998;2024-02-26T15:49:39;10.60;99.90
30300;DHT22;17110;52.602;12.998;2024-02-26T15:54:40;10.50;99.90
30300;DHT22;17110;52.602;12.998;2024-02-26T15:59:41;10.40;99.90
30300;DHT22;17110;52.602;12.998;2024-02-26T16:04:43;10.30;99.90
30300;DHT22;17110;52.602;12.998;2024-02-26T16:09:43;10.20;99.90
30300;DHT22;17110;52.602;12.998;2024-02-26T16:14:48;10.10;99.90
30300;DHT22;17110;52.602;12.998;2024-02-26T16:19:51;10.00;99.90
30300;DHT22;17110;52.602;12.998;2024-02-26T16:24:51;9.90;99.90
30300;DHT22;17110;52.602;12.998;2024-02-26T16:29:52;9.80;99.90
30300;DHT22;17110;52.602;12.998;2024-02-26T16:34:54;9.80;99.90
30300;DHT22;17110;52.602;12.998;2024-02-26T16:39:58;9.70;99.90
30300;DHT22;17110;52.602;12.998;2024-02-26T16:44:59;9.60;99.90
30300;DHT22;17110;52.602;12.998;2024-02-26T16:50:01;9.60;99.90
30300;DHT22;17110;52.602;12.998;2024-02-26T16:55:02;9.50;99.90
30300;DHT22;17110;52.602;12.998;2024-02-26T17:00:03;9.40;99.90
30300;DHT22;17110;52.602;12.998;2024-02-26T17:05:06;9.30;99.90
30300;DHT22;17110;52.602;12.998;2024-02-26T17:10:08;9.30;99.90
30300;DHT22;17110;52.602;12.998;2024-02-26T17:15:09;9.30;99.90
30300;DHT22;17110;52.602;12.998;2024-02-26T17:20:12;9.10;99.90
30300;DHT22;17110;52.602;12.998;2024-02-26T17:25:12;9.10;99.90
30300;DHT22;17110;52.602;12.998;2024-02-26T17:30:13;9.00;99.90
30300;DHT22;17110;52.602;12.998;2024-02-26T17:35:16;9.00;99.90
30300;DHT22;17110;52.602;12.998;2024-02-26T17:40:17;9.00;99.90
30300;DHT22;17110;52.602;12.998;2024-02-26T17:45:17;8.90;99.90
30300;DHT22;17110;52.602;12.998;2024-02-26T17:50:19;8.90;99.90
30300;DHT22;17110;52.602;12.998;2024-02-26T17:55:20;8.80;99.90
30300;DHT22;17110;52.602;12.998;2024-02-26T18:00:21;8.70;99.90
30300;DHT22;17110;52.602;12.998;2024-02-26T18:05:23;8.70;99.90
30300;DHT22;17110;52.602;12.998;2024-02-26T18:10:24;8.60;99.90
30300;DHT22;17110;52.602;12.998;2024-02-26T18:15:25;8.60;99.90
30300;DHT22;17110;52.602;12.998;2024-02-26T18:20:27;8.50;99.90
30300;DHT22;17110;52.602;12.998;2024-02-26T18:25:28;8.50;99.90
30300;DHT22;17110;52.602;12.998;2024-02-26T18:30:29;8.40;99.90
30300;DHT22;17110;52.602;12.998;2024-02-26T18:35:31;8.40;99.90
30300;DHT22;17110;52.602;12.998;2024-02-26T18:40:31;8.20;99.90
30300;DHT22;17110;52.602;12.998;2024-02-26T18:45:32;8.20;99.90
30300;DHT22;17110;52.602;12.998;2024-02-26T18:50:34;8.20;99.90
30300;DHT22;17110;52.602;12.998;2024-02-26T18:55:36;8.10;99.90
30300;DHT22;17110;52.602;12.998;2024-02-26T19:00:36;8.00;99.90
30300;DHT22;17110;52.602;12.998;2024-02-26T19:05:39;7.90;99.90
30300;DHT22;17110;52.602;12.998;2024-02-26T19:10:39;7.90;99.90
30300;DHT22;17110;52.602;12.998;2024-02-26T19:15:40;7.90;99.90
30300;DHT22;17110;52.602;12.998;2024-02-26T19:20:43;7.80;99.90
30300;DHT22;17110;52.602;12.998;2024-02-26T19:25:44;7.70;99.90
30300;DHT22;17110;52.602;12.998;2024-02-26T19:30:45;7.60;99.90
30300;DHT22;17110;52.602;12.998;2024-02-26T19:35:47;7.60;99.90
30300;DHT22;17110;52.602;12.998;2024-02-26T19:40:48;7.50;99.90
30300;DHT22;17110;52.602;12.998;2024-02-26T19:45:48;7.40;99.90
30300;DHT22;17110;52.602;12.998;2024-02-26T19:50:51;7.40;99.90
30300;DHT22;17110;52.602;12.998;2024-02-26T19:55:51;7.30;99.90
30300;DHT22;17110;52.602;12.998;2024-02-26T20:00:52;7.20;99.90
30300;DHT22;17110;52.602;12.998;2024-02-26T20:05:54;7.20;99.90
30300;DHT22;17110;52.602;12.998;2024-02-26T20:10:55;7.10;99.90
30300;DHT22;17110;52.602;12.998;2024-02-26T20:15:56;7.00;99.90
30300;DHT22;17110;52.602;12.998;2024-02-26T20:20:58;6.90;99.90
30300;DHT22;17110;52.602;12.998;2024-02-26T20:25:58;6.90;99.90
30300;DHT22;17110;52.602;12.998;2024-02-26T20:30:59;7.00;99.90
30300;DHT22;17110;52.602;12.998;2024-02-26T20:36:01;6.90;99.90
30300;DHT22;17110;52.602;12.998;2024-02-26T20:41:02;6.90;99.90
30300;DHT22;17110;52.602;12.998;2024-02-26T20:46:03;6.90;99.90
30300;DHT22;17110;52.602;12.998;2024-02-26T20:51:05;6.90;99.90
30300;DHT22;17110;52.602;12.998;2024-02-26T20:56:06;6.90;99.90
30300;DHT22;17110;52.602;12.998;2024-02-26T21:01:07;6.80;99.90
30300;DHT22;17110;52.602;12.998;2024-02-26T21:06:09;6.80;99.90
30300;DHT22;17110;52.602;12.998;2024-02-26T21:11:10;6.70;99.90
30300;DHT22;17110;52.602;12.998;2024-02-26T21:16:10;6.70;99.90
30300;DHT22;17110;52.602;12.998;2024-02-26T21:21:13;6.80;99.90
30300;DHT22;17110;52.602;12.998;2024-02-26T21:26:14;6.70;99.90
30300;DHT22;17110;52.602;12.998;2024-02-26T21:31:15;6.70;99.90
30300;DHT22;17110;52.602;12.998;2024-02-26T21:36:17;6.70;99.90
30300;DHT22;17110;52.602;12.998;2024-02-26T21:41:18;6.70;99.90
30300;DHT22;17110;52.602;12.998;2024-02-26T21:46:19;6.60;99.90
30300;DHT22;17110;52.602;12.998;2024-02-26T21:51:21;6.60;99.90
30300;DHT22;17110;52.602;12.998;2024-02-26T21:56:22;6.50;99.90
30300;DHT22;17110;52.602;12.998;2024-02-26T22:01:23;6.60;99.90
30300;DHT22;17110;52.602;12.998;2024-02-26T22:06:25;6.50;99.90
30300;DHT22;17110;52.602;12.998;2024-02-26T22:11:26;6.40;99.90
30300;DHT22;17110;52.602;12.998;2024-02-26T22:16:26;6.40;99.90
30300;DHT22;17110;52.602;12.998;2024-02-26T22:21:28;6.40;99.90
30300;DHT22;17110;52.602;12.998;2024-02-26T22:26:31;6.40;99.90
30300;DHT22;17110;52.602;12.998;2024-02-26T22:31:32;6.40;99.90
30300;DHT22;17110;52.602;12.998;2024-02-26T22:36:37;6.40;99.90
30300;DHT22;17110;52.602;12.998;2024-02-26T22:41:40;6.40;99.90
30300;DHT22;17110;52.602;12.998;2024-02-26T22:46:41;6.30;99.90
30300;DHT22;17110;52.602;12.998;2024-02-26T22:51:43;6.30;99.90
30300;DHT22;17110;52.602;12.998;2024-02-26T22:56:44;6.10;99.90
30300;DHT22;17110;52.602;12.998;2024-02-26T23:01:45;6.10;99.90
30300;DHT22;17110;52.602;12.998;2024-02-26T23:06:47;6.00;99.90
30300;DHT22;17110;52.602;12.998;2024-02-26T23:11:48;6.00;99.90
30300;DHT22;17110;52.602;12.998;2024-02-26T23:16:49;5.90;99.90
30300;DHT22;17110;52.602;12.998;2024-02-26T23:21:51;5.90;99.90
30300;DHT22;17110;52.602;12.998;2024-02-26T23:26:51;5.80;99.90
30300;DHT22;17110;52.602;12.998;2024-02-26T23:31:52;5.80;99.90
30300;DHT22;17110;52.602;12.998;2024-02-26T23:36:54;5.70;99.90
30300;DHT22;17110;52.602;12.998;2024-02-26T23:41:55;5.60;99.90
30300;DHT22;17110;52.602;12.998;2024-02-26T23:46:56;5.50;99.90
30300;DHT22;17110;52.602;12.998;2024-02-26T23:51:58;5.40;99.90
30300;DHT22;17110;52.602;12.998;2024-02-26T23:56:58;5.40;99.90
